Gheens, Louisiana
Current Conditions -  °F | °C
As of 3:55 AM on Saturday 29 Nov 2014 (Local Time) from KHUM Reporting Station
Haze Haze  
Wind Chill: 45°   Ceiling: 200
Heat Index: 45°   Visibility: 0.75mi
Dew Point: 45°   Wind: 0mph
Humidity: 100%   Direction: NA
Pressure: 30.2"   Gusts: NA
Location:  29.68°N, 90.46°W
Report Text: KHUM 290955Z AUTO 00000KT 3/4SM BR BKN002 07/07 A3020 RMK AO2 T00700070
Loading
Personal Weather Stations






























Interactive Weather Map New forecast layout! Learn more

10-Day Weather Forecast

Advertisements
Track Severe Weather on mobile